x

Sand Key, Fl (sanf1) Weather Station

6:50am - Sat 31st Jan 2015 All times are CST. -5 hours from GMT.

  • Wind
    22mph, 24mph gusts
  • Air Temp 65°f
  • Sea Pressure 1021.2mb
  • Sand Key, Fl
  • Sand Key, Fl

More Historic Weather Station data

Upgrade to MSW Pro to gain access to the past 30 days of data for over 8000 Wavebouys and Weather Stations around the globe.

Join Pro

Comparision Forecast

View Surf forecast
   
Sat 01/31 6:50am 22 24 mph 1021.2mb 65f
5:50am 21 23 mph 1020.9mb 66f
4:50am 23 25 mph 1020.7mb 66f
3:50am 21 24 mph 1020.6mb 66f
2:50am 21 24 mph 1020.6mb 67f
1:50am 18 21 mph 1021.1mb 67f
12:50am 16 18 mph 1021.1mb 67f
Fri 01/30 11:50pm 18 20 mph 1021.4mb 67f
10:50pm 17 20 mph 1021.5mb 67f
9:50pm 17 21 mph 1021.6mb 67f
8:50pm 18 22 mph 1021.4mb 67f
7:50pm 15 17 mph 1021.4mb 67f
6:50pm 17 21 mph 1021.3mb 67f
5:50pm 18 21 mph 1021.2mb 67f
4:50pm 17 20 mph 1021mb 68f
3:50pm 16 20 mph 1020.9mb 67f
2:50pm 16 18 mph 1021.3mb 67f
1:50pm 17 20 mph 1021.6mb 67f
12:50pm 17 20 mph 1022.5mb 67f
11:50am 15 16 mph 1023.3mb 67f
10:50am 14 15 mph 1023.6mb 67f
9:50am 17 20 mph 1023.8mb 67f
8:50am 20 22 mph 1023mb 67f
7:50am 18 22 mph 1022.5mb 67f
6:50am 20 22 mph 1022mb 67f
5:50am 20 22 mph 1021.4mb 67f
4:50am 18 21 mph 1020.8mb 67f
3:50am 17 18 mph 1020.8mb 67f
2:50am 18 22 mph 1021.6mb 67f
1:50am 17 20 mph 1022mb 67f
12:50am 16 18 mph 1022.3mb 67f
Thu 01/29 11:50pm 20 22 mph 1022.9mb 68f
10:50pm 23 25 mph 1023mb 68f
9:50pm 21 23 mph 1022.9mb 68f
8:50pm 22 25 mph 1022.6mb 68f
7:50pm 21 23 mph 1021.9mb 68f
6:50pm 22 25 mph 1022mb 68f
5:50pm 21 24 mph 1021.5mb 69f
4:50pm 22 28 mph 1021.4mb 69f
3:50pm 24 28 mph 1021.1mb 69f
2:50pm 24 28 mph 1021.1mb 69f
1:50pm 23 26 mph 1021.7mb 68f
12:50pm 20 22 mph 1022.8mb 67f
11:50am 21 23 mph 1023.7mb 66f
10:50am 20 23 mph 1024.4mb 65f
9:50am 20 22 mph 1024mb 64f
8:50am 21 23 mph 1023.3mb 63f
7:50am 23 26 mph 1022.7mb 63f
6:50am 26 30 mph 1022.2mb 62f
5:50am 25 30 mph 1021.9mb 62f
4:50am 23 26 mph 1021.5mb 62f
3:50am 20 23 mph 1021.3mb 63f
2:50am 17 20 mph 1021.5mb 63f
1:50am 22 25 mph 1022.2mb 62f
12:50am 22 25 mph 1022.1mb 63f
Wed 01/28 11:50pm 21 24 mph 1022.2mb 63f
10:50pm 20 23 mph 1022.6mb 64f
9:50pm 17 20 mph 1022.3mb 64f
8:50pm 17 22 mph 1022mb 64f
7:50pm 17 20 mph 1021.6mb 63f
6:50pm 16 21 mph 1021.2mb 62f
5:50pm 18 23 mph 1021.1mb 62f
4:50pm 20 24 mph 1020.8mb 62f
3:50pm 18 23 mph 1020.6mb 62f
2:50pm 18 23 mph 1020.6mb 62f
1:50pm 18 22 mph 1020.8mb 62f
12:50pm 20 24 mph 1021.6mb 62f
11:50am 20 24 mph 1022.4mb 63f
10:50am 22 25 mph 1022.6mb 63f
9:50am 22 26 mph 1022.1mb 63f
8:50am 25 29 mph 1021.3mb 64f
7:50am 23 28 mph 1020.2mb 65f
6:50am 23 26 mph 1019.4mb 66f
5:50am 21 24 mph 1018.5mb 69f
4:50am 17 20 mph 1017.9mb 69f
3:50am 20 22 mph 1018mb 69f
2:50am 17 20 mph 1018.2mb 69f
1:50am 17 21 mph 1018.5mb 69f
12:50am 18 21 mph 1018.7mb 68f
Tue 01/27 11:50pm 18 22 mph 1019mb 68f
10:50pm 17 21 mph 1019mb 68f
9:50pm 18 22 mph 1018.7mb 68f
8:50pm 15 20 mph 1018.5mb 68f
7:50pm 15 18 mph 1018.2mb 67f
6:50pm 14 17 mph 1017.8mb 67f
5:50pm 13 15 mph 1017.6mb 67f
4:50pm 14 18 mph 1017.4mb 67f
3:50pm 14 17 mph 1017.3mb 67f
2:50pm 13 15 mph 1017.2mb 67f
1:50pm 11 15 mph 1017.6mb 66f
12:50pm 14 17 mph 1018.3mb 67f